createdAt,value
2019-06-15T00:01:46.837Z,27.60
2019-06-15T00:04:17.500Z,27.50
2019-06-15T00:06:48.280Z,27.60
2019-06-15T00:09:19.625Z,27.60
2019-06-15T00:11:50.188Z,27.60
2019-06-15T00:14:20.881Z,27.50
2019-06-15T00:16:51.405Z,27.40
2019-06-15T00:19:21.945Z,27.00
2019-06-15T00:21:52.707Z,27.50
2019-06-15T00:24:34.987Z,27.60
2019-06-15T00:26:55.725Z,27.50
2019-06-15T00:29:26.356Z,27.40
2019-06-15T00:31:57.846Z,27.40
2019-06-15T00:34:29.189Z,27.40
2019-06-15T00:36:59.764Z,27.40
2019-06-15T00:39:30.288Z,27.40
2019-06-15T00:42:01.458Z,27.30
2019-06-15T00:44:32.282Z,24.70
2019-06-15T00:47:03.345Z,27.30
2019-06-15T00:49:34.796Z,27.40
2019-06-15T00:52:05.536Z,27.40
2019-06-15T00:54:49.728Z,27.30
2019-06-15T00:57:09.006Z,25.70
2019-06-15T00:59:39.647Z,27.30
2019-06-15T01:02:10.509Z,27.30
2019-06-15T01:04:41.031Z,27.40
2019-06-15T01:07:11.638Z,27.30
2019-06-15T01:09:42.361Z,27.20
2019-06-15T01:12:13.893Z,27.20
2019-06-15T01:14:44.484Z,27.90
2019-06-15T01:17:20.041Z,27.00
2019-06-15T01:19:50.550Z,27.00
2019-06-15T01:22:21.175Z,27.00
2019-06-15T01:25:04.891Z,26.90
2019-06-15T01:27:24.635Z,26.90
2019-06-15T01:29:55.448Z,26.80
2019-06-15T01:32:26.708Z,26.80
2019-06-15T01:34:57.329Z,26.80
2019-06-15T01:37:28.011Z,26.70
2019-06-15T01:39:58.582Z,26.70
2019-06-15T01:42:29.849Z,26.70
2019-06-15T01:45:01.262Z,26.60
2019-06-15T01:47:31.826Z,24.60
2019-06-15T01:50:02.986Z,26.60
2019-06-15T01:52:34.882Z,24.40
2019-06-15T01:55:17.436Z,22.60
2019-06-15T01:57:38.143Z,26.60
2019-06-15T02:00:11.747Z,26.60
2019-06-15T02:02:42.365Z,25.70
2019-06-15T02:05:13.017Z,26.70
2019-06-15T02:07:43.646Z,26.80
2019-06-15T02:10:17.201Z,26.80
2019-06-15T02:12:47.787Z,26.90
2019-06-15T02:15:18.472Z,26.90
2019-06-15T02:17:49.761Z,26.90
2019-06-15T02:20:20.793Z,26.90
2019-06-15T02:22:53.493Z,26.90
2019-06-15T02:25:35.489Z,26.90
2019-06-15T02:27:57.619Z,26.90
2019-06-15T02:30:30.834Z,26.90
2019-06-15T02:33:01.864Z,26.90
2019-06-15T02:35:32.946Z,26.90
2019-06-15T02:38:04.655Z,26.90
2019-06-15T02:40:35.364Z,26.90
2019-06-15T02:43:06.447Z,26.90
2019-06-15T02:45:37.005Z,26.80
2019-06-15T02:48:07.922Z,26.80
2019-06-15T02:50:38.948Z,26.80
2019-06-15T02:53:14.331Z,26.80
2019-06-15T02:55:50.510Z,28.80
2019-06-15T02:58:20.133Z,26.90
2019-06-15T03:01:04.540Z,26.80
2019-06-15T03:03:36.383Z,27.50
2019-06-15T03:06:07.323Z,27.10
2019-06-15T03:08:38.248Z,26.20
2019-06-15T03:11:09.177Z,26.40
2019-06-15T03:13:39.723Z,26.90
2019-06-15T03:16:10.254Z,26.90
2019-06-15T03:18:40.974Z,26.90
2019-06-15T03:21:11.629Z,26.40
2019-06-15T03:23:42.248Z,26.80
2019-06-15T03:26:14.187Z,24.90
2019-06-15T03:28:45.091Z,26.80
2019-06-15T03:31:16.663Z,26.70
2019-06-15T03:33:47.172Z,26.80
2019-06-15T03:36:18.110Z,23.80
2019-06-15T03:38:49.094Z,26.80
2019-06-15T03:41:22.152Z,26.90
2019-06-15T03:43:53.539Z,23.80
2019-06-15T03:46:24.123Z,26.90
2019-06-15T03:48:55.526Z,26.80
2019-06-15T03:51:26.681Z,26.80
2019-06-15T03:53:57.369Z,26.70
2019-06-15T03:56:29.705Z,26.80
2019-06-15T03:59:00.367Z,29.50
2019-06-15T04:01:37.091Z,26.70
2019-06-15T04:04:07.988Z,26.70
2019-06-15T04:06:38.919Z,26.70
2019-06-15T04:09:09.662Z,26.90
2019-06-15T04:11:40.231Z,26.80
2019-06-15T04:14:11.629Z,26.80
2019-06-15T04:16:42.318Z,26.80
2019-06-15T04:19:13.115Z,26.90
2019-06-15T04:21:43.705Z,26.90
2019-06-15T04:24:14.756Z,27.00
2019-06-15T04:26:45.424Z,26.90
2019-06-15T04:29:16.371Z,27.00
2019-06-15T04:31:46.967Z,27.10
2019-06-15T04:34:18.352Z,27.10
2019-06-15T04:36:48.988Z,27.10
2019-06-15T04:39:19.786Z,27.00
2019-06-15T04:41:50.412Z,27.10
2019-06-15T04:44:26.271Z,28.20
2019-06-15T04:47:02.442Z,27.10
2019-06-15T04:49:30.090Z,25.10
2019-06-15T04:52:01.580Z,27.10
2019-06-15T04:54:32.681Z,27.20
2019-06-15T04:57:05.779Z,27.20
2019-06-15T04:59:37.291Z,27.10
2019-06-15T05:02:07.880Z,27.20
2019-06-15T05:04:38.511Z,25.60
2019-06-15T05:07:09.101Z,27.20
2019-06-15T05:09:40.022Z,27.70
2019-06-15T05:12:10.710Z,27.30
2019-06-15T05:14:42.380Z,27.40
2019-06-15T05:17:12.904Z,27.90
2019-06-15T05:19:43.978Z,27.50
2019-06-15T05:22:14.859Z,27.60
2019-06-15T05:24:45.680Z,27.70
2019-06-15T05:27:16.342Z,27.40
2019-06-15T05:29:47.010Z,27.80
2019-06-15T05:32:19.947Z,27.80
2019-06-15T05:34:54.238Z,24.70
2019-06-15T05:37:24.737Z,27.60
2019-06-15T05:39:55.491Z,28.10
2019-06-15T05:42:26.728Z,28.00
2019-06-15T05:44:58.025Z,28.10
2019-06-15T05:47:28.715Z,27.40
2019-06-15T05:49:59.450Z,27.70
2019-06-15T05:52:30.344Z,27.10
2019-06-15T05:55:01.557Z,28.30
2019-06-15T05:57:32.109Z,28.40
2019-06-15T06:00:03.062Z,28.40
2019-06-15T06:02:34.360Z,28.40
2019-06-15T06:05:06.707Z,30.00
2019-06-15T06:07:37.288Z,28.70
2019-06-15T06:10:10.777Z,28.80
2019-06-15T06:12:40.708Z,28.90
2019-06-15T06:15:11.904Z,29.30
2019-06-15T06:17:42.545Z,29.10
2019-06-15T06:20:14.684Z,29.00
2019-06-15T06:22:45.387Z,29.00
2019-06-15T06:25:16.648Z,29.00
2019-06-15T06:27:47.191Z,29.00
2019-06-15T06:30:17.984Z,29.00
2019-06-15T06:32:48.653Z,29.00
2019-06-15T06:35:20.662Z,29.10
2019-06-15T06:37:51.318Z,29.10
2019-06-15T06:40:21.789Z,25.60
2019-06-15T06:42:52.294Z,29.00
2019-06-15T06:45:23.478Z,29.00
2019-06-15T06:47:55.329Z,29.10
2019-06-15T06:50:26.481Z,29.00
2019-06-15T06:52:56.983Z,29.20
2019-06-15T06:55:27.657Z,29.30
2019-06-15T06:57:58.232Z,29.40
2019-06-15T07:00:28.779Z,29.40
2019-06-15T07:02:59.713Z,29.40
2019-06-15T07:05:30.397Z,29.40
2019-06-15T07:08:01.576Z,29.40
2019-06-15T07:10:32.317Z,29.30
2019-06-15T07:13:05.317Z,29.40
2019-06-15T07:15:36.285Z,31.30
2019-06-15T07:18:07.177Z,29.60
2019-06-15T07:20:37.701Z,32.70
2019-06-15T07:23:08.260Z,29.90
2019-06-15T07:25:39.410Z,30.90
2019-06-15T07:28:12.776Z,30.10
2019-06-15T07:30:44.365Z,30.20
2019-06-15T07:33:15.472Z,30.30
2019-06-15T07:35:46.148Z,30.00
2019-06-15T07:38:17.117Z,30.40
2019-06-15T07:40:48.192Z,30.50
2019-06-15T07:43:19.742Z,30.60
2019-06-15T07:45:51.298Z,30.90
2019-06-15T07:48:23.086Z,30.70
2019-06-15T07:50:53.999Z,30.50
2019-06-15T07:53:24.946Z,30.40
2019-06-15T07:55:55.648Z,31.00
2019-06-15T07:58:26.206Z,30.40
2019-06-15T08:00:56.970Z,30.40
2019-06-15T08:03:28.552Z,30.20
2019-06-15T08:05:59.616Z,30.20
2019-06-15T08:08:30.785Z,30.20
2019-06-15T08:11:01.710Z,30.20
2019-06-15T08:13:32.292Z,30.20
2019-06-15T08:16:03.499Z,30.20
2019-06-15T08:18:34.678Z,30.20
2019-06-15T08:21:06.296Z,30.20
2019-06-15T08:23:38.077Z,32.80
2019-06-15T08:26:09.160Z,30.30
2019-06-15T08:28:40.706Z,30.40
2019-06-15T08:31:11.545Z,30.50
2019-06-15T08:33:42.643Z,30.30
2019-06-15T08:36:13.290Z,30.30
2019-06-15T08:38:43.944Z,30.30
2019-06-15T08:41:15.365Z,30.40
2019-06-15T08:43:46.145Z,30.50
2019-06-15T08:46:17.501Z,30.50
2019-06-15T08:48:48.203Z,30.60
2019-06-15T08:51:19.244Z,30.70
2019-06-15T08:53:49.898Z,29.30
2019-06-15T08:56:20.459Z,30.80
2019-06-15T08:58:55.622Z,30.80
2019-06-15T09:01:24.630Z,30.80
2019-06-15T09:03:55.277Z,30.80
2019-06-15T09:06:25.894Z,30.80
2019-06-15T09:08:56.647Z,30.70
2019-06-15T09:11:27.948Z,30.60
2019-06-15T09:13:58.647Z,30.80
2019-06-15T09:16:29.722Z,30.70
2019-06-15T09:19:00.320Z,27.50
2019-06-15T09:21:32.636Z,30.90
2019-06-15T09:24:03.556Z,30.80
2019-06-15T09:26:34.941Z,30.80
2019-06-15T09:29:11.352Z,29.00
2019-06-15T09:31:38.187Z,30.90
2019-06-15T09:34:18.481Z,31.10
2019-06-15T09:36:42.734Z,31.10
2019-06-15T09:39:14.685Z,31.30
2019-06-15T09:41:45.671Z,31.50
2019-06-15T09:44:16.654Z,31.80
2019-06-15T09:46:47.764Z,31.80
2019-06-15T09:49:18.308Z,32.00
2019-06-15T09:51:48.924Z,32.10
2019-06-15T09:54:19.706Z,30.30
2019-06-15T09:56:50.320Z,32.00
2019-06-15T09:59:26.059Z,32.10
2019-06-15T10:01:53.401Z,32.10
2019-06-15T10:04:24.031Z,31.40
2019-06-15T10:06:55.644Z,32.60
2019-06-15T10:09:26.407Z,32.70
2019-06-15T10:11:56.979Z,32.90
2019-06-15T10:14:28.012Z,33.20
2019-06-15T10:16:59.818Z,33.30
2019-06-15T10:19:30.550Z,33.60
2019-06-15T10:22:01.671Z,33.70
2019-06-15T10:24:32.728Z,31.20
2019-06-15T10:27:03.572Z,33.70
2019-06-15T10:29:41.844Z,33.50
2019-06-15T10:32:07.493Z,31.70
2019-06-15T10:34:38.233Z,33.80
2019-06-15T10:37:08.954Z,34.10
2019-06-15T10:39:40.220Z,32.20
2019-06-15T10:42:10.822Z,35.00
2019-06-15T10:44:41.460Z,35.50
2019-06-15T10:47:12.509Z,35.40
2019-06-15T10:49:43.145Z,35.20
2019-06-15T10:52:13.769Z,33.20
2019-06-15T10:54:45.661Z,37.10
2019-06-15T10:57:16.240Z,33.00
2019-06-15T10:59:56.834Z,31.80
2019-06-15T11:02:19.144Z,34.70
2019-06-15T11:04:49.766Z,34.80
2019-06-15T11:07:20.379Z,34.50
2019-06-15T11:09:50.973Z,35.70
2019-06-15T11:12:21.695Z,36.40
2019-06-15T11:14:52.835Z,36.40
2019-06-15T11:17:23.515Z,35.60
2019-06-15T11:19:55.328Z,35.60
2019-06-15T11:22:26.373Z,35.30
2019-06-15T11:24:57.071Z,31.70
2019-06-15T11:27:27.735Z,34.50
2019-06-15T11:30:12.574Z,34.30
2019-06-15T11:32:31.199Z,34.10
2019-06-15T11:35:04.241Z,34.10
2019-06-15T11:37:35.509Z,37.10
2019-06-15T11:40:06.332Z,34.60
2019-06-15T11:42:37.649Z,35.40
2019-06-15T11:45:08.635Z,35.10
2019-06-15T11:47:39.540Z,35.50
2019-06-15T11:50:12.019Z,35.50
2019-06-15T11:52:43.399Z,36.00
2019-06-15T11:55:14.175Z,37.60
2019-06-15T11:57:44.824Z,38.10
2019-06-15T12:00:30.440Z,38.50
2019-06-15T12:02:48.176Z,38.50
2019-06-15T12:05:18.997Z,39.00
2019-06-15T12:07:49.604Z,39.40
2019-06-15T12:10:20.705Z,40.00
2019-06-15T12:12:51.387Z,40.40
2019-06-15T12:15:22.296Z,40.20
2019-06-15T12:17:52.864Z,39.90
2019-06-15T12:20:23.816Z,39.20
2019-06-15T12:22:56.695Z,38.10
2019-06-15T12:25:27.552Z,37.40
2019-06-15T12:27:58.490Z,37.10
2019-06-15T12:30:47.375Z,37.20
2019-06-15T12:33:14.648Z,35.50
2019-06-15T12:35:45.571Z,37.60
2019-06-15T12:38:16.570Z,36.40
2019-06-15T12:40:47.620Z,38.00
2019-06-15T12:43:19.212Z,37.90
2019-06-15T12:45:49.922Z,38.20
2019-06-15T12:48:20.882Z,37.70
2019-06-15T12:50:51.740Z,37.50
2019-06-15T12:53:22.524Z,37.70
2019-06-15T12:55:53.947Z,38.10
2019-06-15T12:58:24.726Z,38.00
2019-06-15T13:01:02.739Z,37.40
2019-06-15T13:03:27.707Z,37.60
2019-06-15T13:05:58.854Z,38.20
2019-06-15T13:08:29.629Z,39.00
2019-06-15T13:11:00.322Z,39.60
2019-06-15T13:13:30.934Z,40.00
2019-06-15T13:16:01.511Z,40.00
2019-06-15T13:18:32.930Z,39.30
2019-06-15T13:21:03.582Z,38.70
2019-06-15T13:23:34.132Z,38.30
2019-06-15T13:26:04.858Z,37.80
2019-06-15T13:28:36.530Z,37.80
2019-06-15T13:31:17.738Z,37.40
2019-06-15T13:33:40.610Z,36.90
2019-06-15T13:36:12.593Z,36.90
2019-06-15T13:38:43.371Z,37.20
2019-06-15T13:41:14.082Z,38.00
2019-06-15T13:43:44.715Z,39.20
2019-06-15T13:46:15.321Z,40.20
2019-06-15T13:48:46.253Z,40.70
2019-06-15T13:51:16.991Z,40.60
2019-06-15T13:53:47.593Z,40.80
2019-06-15T13:56:18.591Z,40.90
2019-06-15T13:58:49.243Z,41.00
2019-06-15T14:01:33.310Z,41.50
2019-06-15T14:03:52.215Z,40.20
2019-06-15T14:06:22.982Z,39.80
2019-06-15T14:08:54.307Z,39.70
2019-06-15T14:11:25.274Z,40.10
2019-06-15T14:13:56.831Z,39.60
2019-06-15T14:16:27.453Z,39.00
2019-06-15T14:18:58.158Z,38.60
2019-06-15T14:21:29.086Z,37.30
2019-06-15T14:23:59.760Z,40.20
2019-06-15T14:26:30.501Z,40.90
2019-06-15T14:29:02.916Z,41.30
2019-06-15T14:31:46.640Z,41.50
2019-06-15T14:34:06.699Z,41.00
2019-06-15T14:36:37.983Z,41.80
2019-06-15T14:39:08.981Z,41.90
2019-06-15T14:41:40.062Z,41.90
2019-06-15T14:44:10.676Z,41.50
2019-06-15T14:46:42.229Z,42.00
2019-06-15T14:49:13.774Z,42.20
2019-06-15T14:51:44.506Z,42.00
2019-06-15T14:54:16.178Z,40.60
2019-06-15T14:56:46.983Z,38.90
2019-06-15T14:59:17.720Z,38.60
2019-06-15T15:01:48.371Z,37.50
2019-06-15T15:04:20.948Z,36.60
2019-06-15T15:06:51.685Z,35.90
2019-06-15T15:09:22.445Z,33.60
2019-06-15T15:11:53.358Z,34.90
2019-06-15T15:14:26.023Z,34.40
2019-06-15T15:16:57.162Z,34.30
2019-06-15T15:19:28.401Z,34.00
2019-06-15T15:21:59.590Z,33.70
2019-06-15T15:24:30.592Z,33.10
2019-06-15T15:27:01.558Z,32.90
2019-06-15T15:29:32.290Z,32.60
2019-06-15T15:32:23.976Z,29.60
2019-06-15T15:34:45.284Z,32.50
2019-06-15T15:37:17.057Z,31.90
2019-06-15T15:39:47.570Z,31.70
2019-06-15T15:42:19.393Z,31.60
2019-06-15T15:44:49.993Z,26.90
2019-06-15T15:47:20.657Z,27.50
2019-06-15T15:49:53.141Z,31.10
2019-06-15T15:52:26.591Z,31.00
2019-06-15T15:54:56.757Z,30.90
2019-06-15T15:57:29.406Z,30.90
2019-06-15T15:59:59.862Z,30.70
2019-06-15T16:02:44.640Z,30.60
2019-06-15T16:05:06.229Z,30.50
2019-06-15T16:07:36.916Z,33.00
2019-06-15T16:10:12.295Z,30.40
2019-06-15T16:12:43.076Z,30.30
2019-06-15T16:15:15.865Z,30.10
2019-06-15T16:17:49.894Z,30.10
2019-06-15T16:20:22.931Z,29.80
2019-06-15T16:22:56.410Z,29.60
2019-06-15T16:25:28.195Z,29.60
2019-06-15T16:27:59.175Z,29.50
2019-06-15T16:30:59.454Z,29.50
2019-06-15T16:33:08.104Z,29.40
2019-06-15T16:35:39.005Z,29.30
2019-06-15T16:38:09.981Z,29.10
2019-06-15T16:40:41.183Z,29.10
2019-06-15T16:43:12.775Z,28.80
2019-06-15T16:45:46.647Z,28.40
2019-06-15T16:48:22.356Z,27.70
2019-06-15T16:50:54.277Z,29.70
2019-06-15T16:53:26.023Z,26.80
2019-06-15T16:55:56.980Z,26.80
2019-06-15T16:58:27.839Z,24.20
2019-06-15T17:00:58.450Z,27.20
2019-06-15T17:03:29.772Z,26.70
2019-06-15T17:06:03.363Z,26.70
2019-06-15T17:08:33.257Z,26.20
2019-06-15T17:11:06.563Z,29.20
2019-06-15T17:13:37.154Z,26.10
2019-06-15T17:16:10.461Z,24.10
2019-06-15T17:18:41.929Z,26.40
2019-06-15T17:21:17.449Z,26.70
2019-06-15T17:23:49.340Z,27.10
2019-06-15T17:26:19.982Z,27.40
2019-06-15T17:28:50.713Z,27.70
2019-06-15T17:31:21.307Z,28.00
2019-06-15T17:33:52.767Z,28.40
2019-06-15T17:36:23.429Z,28.40
2019-06-15T17:38:56.881Z,24.70
2019-06-15T17:41:26.788Z,26.40
2019-06-15T17:43:57.457Z,29.30
2019-06-15T17:46:29.891Z,28.60
2019-06-15T17:49:00.953Z,28.60
2019-06-15T17:51:32.751Z,28.70
2019-06-15T17:54:06.158Z,28.70
2019-06-15T17:56:36.834Z,28.70
2019-06-15T17:59:07.726Z,30.10
2019-06-15T18:01:38.800Z,28.80
2019-06-15T18:04:09.508Z,28.80
2019-06-15T18:06:46.873Z,28.80
2019-06-15T18:09:27.571Z,28.80
2019-06-15T18:12:00.445Z,28.70
2019-06-15T18:14:31.737Z,28.70
2019-06-15T18:17:02.256Z,28.70
2019-06-15T18:19:33.567Z,28.50
2019-06-15T18:22:07.241Z,28.30
2019-06-15T18:24:38.126Z,28.10
2019-06-15T18:27:09.664Z,28.10
2019-06-15T18:29:42.647Z,28.10
2019-06-15T18:32:13.317Z,28.10
2019-06-15T18:34:46.298Z,28.10
2019-06-15T18:37:17.289Z,28.10
2019-06-15T18:39:48.150Z,28.20
2019-06-15T18:42:19.186Z,27.90
2019-06-15T18:44:53.074Z,28.10
2019-06-15T18:47:26.683Z,28.00
2019-06-15T18:49:59.227Z,27.70
2019-06-15T18:52:30.928Z,27.00
2019-06-15T18:55:02.089Z,26.60
2019-06-15T18:57:32.913Z,26.40
2019-06-15T19:00:03.971Z,25.20
2019-06-15T19:02:39.302Z,26.40
2019-06-15T19:05:10.624Z,26.40
2019-06-15T19:07:42.686Z,26.40
2019-06-15T19:10:16.592Z,26.40
2019-06-15T19:12:49.087Z,26.40
2019-06-15T19:15:20.513Z,30.70
2019-06-15T19:17:51.490Z,24.90
2019-06-15T19:20:22.941Z,26.60
2019-06-15T19:22:56.086Z,26.60
2019-06-15T19:25:27.007Z,26.60
2019-06-15T19:27:57.712Z,22.80
2019-06-15T19:30:28.376Z,26.70
2019-06-15T19:33:01.709Z,26.70
2019-06-15T19:35:32.520Z,25.60
2019-06-15T19:38:06.045Z,26.70
2019-06-15T19:40:37.965Z,26.80
2019-06-15T19:43:08.848Z,26.80
2019-06-15T19:45:39.382Z,28.30
2019-06-15T19:48:09.974Z,26.60
2019-06-15T19:50:40.669Z,26.90
2019-06-15T19:53:11.263Z,26.70
2019-06-15T19:55:41.954Z,25.90
2019-06-15T19:58:12.587Z,26.80
2019-06-15T20:00:43.557Z,26.70
2019-06-15T20:03:17.716Z,26.70
2019-06-15T20:05:49.815Z,26.70
2019-06-15T20:08:21.768Z,26.70
2019-06-15T20:10:53.144Z,26.70
2019-06-15T20:13:24.736Z,26.60
2019-06-15T20:15:57.275Z,26.50
2019-06-15T20:21:11.571Z,24.60
2019-06-15T20:23:42.565Z,26.40
2019-06-15T20:26:13.250Z,26.40
2019-06-15T20:28:48.385Z,26.50
2019-06-15T20:31:19.259Z,26.60
2019-06-15T20:33:52.318Z,26.50
2019-06-15T20:36:23.288Z,26.60
2019-06-15T20:38:56.196Z,26.70
2019-06-15T20:41:28.843Z,26.70
2019-06-15T20:44:00.184Z,26.70
2019-06-15T20:46:36.920Z,26.70
2019-06-15T20:49:06.678Z,26.70
2019-06-15T20:51:40.760Z,26.60
2019-06-15T20:54:16.833Z,26.60
2019-06-15T20:56:49.699Z,26.50
2019-06-15T20:59:20.270Z,26.50
2019-06-15T21:01:51.422Z,24.40
2019-06-15T21:04:21.912Z,26.30
2019-06-15T21:06:52.518Z,26.30
2019-06-15T21:12:00.108Z,26.30
2019-06-15T21:14:36.085Z,26.30
2019-06-15T21:17:06.754Z,26.20
2019-06-15T21:19:42.099Z,26.20
2019-06-15T21:22:13.503Z,26.20
2019-06-15T21:24:46.327Z,26.10
2019-06-15T21:27:17.163Z,26.00
2019-06-15T21:29:48.741Z,25.90
2019-06-15T21:32:19.652Z,25.90
2019-06-15T21:34:50.325Z,25.70
2019-06-15T21:37:20.871Z,24.40
2019-06-15T21:39:51.434Z,25.60
2019-06-15T21:42:22.055Z,25.60
2019-06-15T21:44:52.563Z,25.70
2019-06-15T21:47:23.114Z,25.60
2019-06-15T21:49:55.668Z,25.60
2019-06-15T21:52:26.677Z,25.60
2019-06-15T21:54:57.207Z,25.50
2019-06-15T21:57:28.226Z,26.70
2019-06-15T21:59:58.855Z,25.50
2019-06-15T22:02:29.623Z,25.50
2019-06-15T22:05:00.327Z,27.60
2019-06-15T22:07:30.809Z,25.40
2019-06-15T22:10:02.065Z,25.40
2019-06-15T22:12:32.738Z,25.20
2019-06-15T22:15:03.300Z,25.10
2019-06-15T22:17:36.936Z,25.00
2019-06-15T22:20:07.448Z,26.80
2019-06-15T22:22:38.188Z,25.00
2019-06-15T22:25:08.816Z,25.00
2019-06-15T22:27:39.415Z,25.00
2019-06-15T22:30:11.328Z,25.00
2019-06-15T22:32:42.042Z,24.80
2019-06-15T22:35:16.370Z,24.70
2019-06-15T22:37:46.926Z,24.70
2019-06-15T22:40:17.405Z,24.70
2019-06-15T22:42:51.117Z,24.70
2019-06-15T22:45:21.985Z,24.70
2019-06-15T22:47:52.535Z,24.70
2019-06-15T22:50:27.681Z,24.70
2019-06-15T22:53:09.173Z,24.70
2019-06-15T22:55:46.486Z,24.60
2019-06-15T22:58:18.035Z,24.50
2019-06-15T23:00:50.063Z,24.50
2019-06-15T23:03:28.314Z,24.50
2019-06-15T23:06:00.837Z,24.50
2019-06-15T23:08:36.313Z,24.40
2019-06-15T23:11:08.443Z,24.30
2019-06-15T23:13:41.362Z,22.80
2019-06-15T23:16:12.342Z,24.50
2019-06-15T23:18:43.340Z,24.50
2019-06-15T23:21:14.176Z,24.60
2019-06-15T23:23:46.945Z,24.60
2019-06-15T23:26:17.060Z,24.50
2019-06-15T23:28:47.785Z,24.00
2019-06-15T23:31:18.362Z,24.60
2019-06-15T23:33:49.285Z,24.50
2019-06-15T23:36:26.941Z,24.50
2019-06-15T23:38:57.418Z,24.40
2019-06-15T23:41:28.706Z,24.40
2019-06-15T23:43:59.888Z,29.00
2019-06-15T23:46:30.573Z,24.50
2019-06-15T23:49:01.971Z,24.40
2019-06-15T23:51:33.969Z,24.40
2019-06-15T23:54:04.613Z,24.30
2019-06-15T23:56:36.867Z,24.20
2019-06-15T23:59:07.519Z,24.20
